sensor_id;sensor_type;location;lat;lon;timestamp;pressure;altitude;pressure_sealevel;temperature;humidity
61874;BME280;49692;55.052;73.310;2022-09-13T00:01:15;101232.59;;;6.95;84.92
61874;BME280;49692;55.052;73.310;2022-09-13T00:03:42;101236.06;;;6.94;84.50
61874;BME280;49692;55.052;73.310;2022-09-13T00:06:19;101232.59;;;7.03;84.69
61874;BME280;49692;55.052;73.310;2022-09-13T00:08:47;101241.31;;;7.02;84.59
61874;BME280;49692;55.052;73.310;2022-09-13T00:11:23;101234.28;;;7.15;85.37
61874;BME280;49692;55.052;73.310;2022-09-13T00:13:51;101241.22;;;7.18;84.57
61874;BME280;49692;55.052;73.310;2022-09-13T00:16:21;101236.84;;;7.21;84.41
61874;BME280;49692;55.052;73.310;2022-09-13T00:18:48;101241.25;;;7.13;84.19
61874;BME280;49692;55.052;73.310;2022-09-13T00:21:18;101237.72;;;7.20;84.51
61874;BME280;49692;55.052;73.310;2022-09-13T00:23:48;101257.69;;;7.42;83.97
61874;BME280;49692;55.052;73.310;2022-09-13T00:26:26;101252.50;;;7.28;84.30
61874;BME280;49692;55.052;73.310;2022-09-13T00:28:56;101260.31;;;7.37;83.76
61874;BME280;49692;55.052;73.310;2022-09-13T00:31:28;101258.56;;;7.39;83.53
61874;BME280;49692;55.052;73.310;2022-09-13T00:33:58;101262.97;;;7.31;83.73
61874;BME280;49692;55.052;73.310;2022-09-13T00:36:25;101269.09;;;7.23;84.07
61874;BME280;49692;55.052;73.310;2022-09-13T00:38:52;101272.56;;;7.29;84.08
61874;BME280;49692;55.052;73.310;2022-09-13T00:41:21;101271.72;;;7.20;85.37
61874;BME280;49692;55.052;73.310;2022-09-13T00:43:56;101271.72;;;7.25;84.94
61874;BME280;49692;55.052;73.310;2022-09-13T00:46:34;101271.72;;;7.22;84.84
61874;BME280;49692;55.052;73.310;2022-09-13T00:49:23;101268.09;;;7.49;83.84
61874;BME280;49692;55.052;73.310;2022-09-13T00:52:02;101273.41;;;7.35;84.17
61874;BME280;49692;55.052;73.310;2022-09-13T00:54:36;101273.38;;;7.43;83.89
61874;BME280;49692;55.052;73.310;2022-09-13T00:57:06;101272.47;;;7.44;83.13
61874;BME280;49692;55.052;73.310;2022-09-13T00:59:46;101281.19;;;7.49;83.69
61874;BME280;49692;55.052;73.310;2022-09-13T01:02:15;101282.97;;;7.41;83.58
61874;BME280;49692;55.052;73.310;2022-09-13T01:04:43;101278.56;;;7.49;82.89
61874;BME280;49692;55.052;73.310;2022-09-13T01:07:12;101278.56;;;7.45;82.96
61874;BME280;49692;55.052;73.310;2022-09-13T01:10:06;101282.88;;;7.56;82.51
61874;BME280;49692;55.052;73.310;2022-09-13T01:12:45;101286.34;;;7.60;82.61
61874;BME280;49692;55.052;73.310;2022-09-13T01:15:14;101283.81;;;7.46;83.01
61874;BME280;49692;55.052;73.310;2022-09-13T01:17:53;101284.72;;;7.40;83.34
61874;BME280;49692;55.052;73.310;2022-09-13T01:20:31;101284.69;;;7.44;83.27
61874;BME280;49692;55.052;73.310;2022-09-13T01:26:25;101282.06;;;7.45;83.12
61874;BME280;49692;55.052;73.310;2022-09-13T01:29:20;101284.69;;;7.44;83.13
61874;BME280;49692;55.052;73.310;2022-09-13T01:31:57;101292.63;;;7.20;83.03
61874;BME280;49692;55.052;73.310;2022-09-13T01:40:34;101292.59;;;7.33;83.23
61874;BME280;49692;55.052;73.310;2022-09-13T01:46:05;101288.31;;;7.19;83.97
61874;BME280;49692;55.052;73.310;2022-09-13T01:49:13;101292.63;;;7.23;84.12
61874;BME280;49692;55.052;73.310;2022-09-13T01:52:00;101305.72;;;7.22;83.85
61874;BME280;49692;55.052;73.310;2022-09-13T01:57:34;101310.91;;;7.28;83.84
61874;BME280;49692;55.052;73.310;2022-09-13T02:00:13;101306.56;;;7.35;83.72
61874;BME280;49692;55.052;73.310;2022-09-13T02:05:37;101303.88;;;7.50;82.22
61874;BME280;49692;55.052;73.310;2022-09-13T02:08:33;101316.03;;;7.54;82.66
61874;BME280;49692;55.052;73.310;2022-09-13T02:11:15;101317.75;;;7.65;82.18
61874;BME280;49692;55.052;73.310;2022-09-13T02:16:39;101321.97;;;7.83;80.94
61874;BME280;49692;55.052;73.310;2022-09-13T02:19:22;101318.53;;;7.79;81.18
61874;BME280;49692;55.052;73.310;2022-09-13T02:21:55;101310.63;;;7.87;80.43
61874;BME280;49692;55.052;73.310;2022-09-13T02:24:31;101321.91;;;7.94;80.34
61874;BME280;49692;55.052;73.310;2022-09-13T02:27:05;101315.75;;;7.99;80.36
61874;BME280;49692;55.052;73.310;2022-09-13T02:29:36;101320.91;;;8.09;79.61
61874;BME280;49692;55.052;73.310;2022-09-13T02:32:13;101317.38;;;8.11;78.44
61874;BME280;49692;55.052;73.310;2022-09-13T02:34:57;101317.25;;;8.30;78.18
61874;BME280;49692;55.052;73.310;2022-09-13T02:37:28;101311.94;;;8.38;76.94
61874;BME280;49692;55.052;73.310;2022-09-13T02:40:00;101316.22;;;8.50;77.08
61874;BME280;49692;55.052;73.310;2022-09-13T02:42:40;101322.22;;;8.61;77.05
61874;BME280;49692;55.052;73.310;2022-09-13T02:45:11;101321.28;;;8.67;76.63
61874;BME280;49692;55.052;73.310;2022-09-13T02:47:55;101321.13;;;8.79;76.26
61874;BME280;49692;55.052;73.310;2022-09-13T02:51:12;101325.38;;;8.94;75.86
61874;BME280;49692;55.052;73.310;2022-09-13T02:57:24;101320.78;;;9.15;74.94
61874;BME280;49692;55.052;73.310;2022-09-13T03:00:14;101330.09;;;9.37;74.78
61874;BME280;49692;55.052;73.310;2022-09-13T03:03:05;101332.59;;;9.50;74.25
61874;BME280;49692;55.052;73.310;2022-09-13T03:05:36;101326.56;;;9.42;73.99
61874;BME280;49692;55.052;73.310;2022-09-13T03:08:24;101327.09;;;9.68;73.22
61874;BME280;49692;55.052;73.310;2022-09-13T03:11:20;101335.78;;;9.72;72.60
61874;BME280;49692;55.052;73.310;2022-09-13T03:23:28;101335.25;;;10.08;71.17
61874;BME280;49692;55.052;73.310;2022-09-13T03:26:37;101345.69;;;10.14;71.62
61874;BME280;49692;55.052;73.310;2022-09-13T03:43:26;101352.34;;;10.85;68.94
61874;BME280;49692;55.052;73.310;2022-09-13T03:46:05;101349.66;;;10.88;67.41
61874;BME280;49692;55.052;73.310;2022-09-13T03:48:47;101357.41;;;10.96;67.24
61874;BME280;49692;55.052;73.310;2022-09-13T03:51:31;101352.00;;;11.04;67.52
61874;BME280;49692;55.052;73.310;2022-09-13T03:54:07;101357.84;;;11.20;67.49
61874;BME280;49692;55.052;73.310;2022-09-13T04:00:01;101368.84;;;11.42;65.51
61874;BME280;49692;55.052;73.310;2022-09-13T04:02:37;101363.56;;;11.42;65.50
61874;BME280;49692;55.052;73.310;2022-09-13T04:05:04;101364.13;;;11.57;65.37
61874;BME280;49692;55.052;73.310;2022-09-13T04:07:32;101372.84;;;11.60;65.80
61874;BME280;49692;55.052;73.310;2022-09-13T04:09:59;101361.25;;;11.67;64.24
61874;BME280;49692;55.052;73.310;2022-09-13T04:12:26;101353.88;;;11.83;64.32
61874;BME280;49692;55.052;73.310;2022-09-13T04:14:56;101355.84;;;11.74;63.32
61874;BME280;49692;55.052;73.310;2022-09-13T04:17:23;101355.63;;;11.83;63.02
61874;BME280;49692;55.052;73.310;2022-09-13T04:19:49;101366.84;;;11.93;62.34
61874;BME280;49692;55.052;73.310;2022-09-13T04:22:16;101365.94;;;11.95;62.30
61874;BME280;49692;55.052;73.310;2022-09-13T04:24:42;101359.03;;;11.88;62.81
61874;BME280;49692;55.052;73.310;2022-09-13T04:27:18;101360.66;;;11.94;62.66
61874;BME280;49692;55.052;73.310;2022-09-13T04:29:44;101363.13;;;12.02;61.92
61874;BME280;49692;55.052;73.310;2022-09-13T04:32:12;101367.66;;;11.96;61.91
61874;BME280;49692;55.052;73.310;2022-09-13T04:34:40;101366.59;;;12.04;60.15
61874;BME280;49692;55.052;73.310;2022-09-13T04:37:17;101359.09;;;12.24;59.68
61874;BME280;49692;55.052;73.310;2022-09-13T04:39:43;101358.06;;;12.30;58.91
61874;BME280;49692;55.052;73.310;2022-09-13T04:42:13;101355.97;;;12.43;59.42
61874;BME280;49692;55.052;73.310;2022-09-13T04:44:42;101366.44;;;12.48;59.62
61874;BME280;49692;55.052;73.310;2022-09-13T04:47:09;101360.97;;;12.55;59.96
61874;BME280;49692;55.052;73.310;2022-09-13T04:49:36;101360.78;;;12.62;60.34
61874;BME280;49692;55.052;73.310;2022-09-13T04:52:02;101364.69;;;12.81;58.83
61874;BME280;49692;55.052;73.310;2022-09-13T04:54:31;101368.78;;;12.92;58.52
61874;BME280;49692;55.052;73.310;2022-09-13T04:56:57;101360.56;;;13.04;58.54
61874;BME280;49692;55.052;73.310;2022-09-13T04:59:24;101361.53;;;13.01;58.77
61874;BME280;49692;55.052;73.310;2022-09-13T05:02:02;101358.19;;;13.26;58.78
61874;BME280;49692;55.052;73.310;2022-09-13T05:04:39;101360.44;;;13.40;57.39
61874;BME280;49692;55.052;73.310;2022-09-13T05:07:15;101365.78;;;13.39;58.39
61874;BME280;49692;55.052;73.310;2022-09-13T05:09:42;101363.38;;;13.61;58.10
61874;BME280;49692;55.052;73.310;2022-09-13T05:12:10;101354.56;;;13.60;57.17
61874;BME280;49692;55.052;73.310;2022-09-13T05:14:39;101362.41;;;13.63;55.06
61874;BME280;49692;55.052;73.310;2022-09-13T05:17:05;101356.28;;;13.61;55.58
61874;BME280;49692;55.052;73.310;2022-09-13T05:19:38;101353.84;;;13.55;56.31
61874;BME280;49692;55.052;73.310;2022-09-13T05:22:04;101353.59;;;13.63;55.11
61874;BME280;49692;55.052;73.310;2022-09-13T05:24:33;101360.59;;;13.65;55.07
61874;BME280;49692;55.052;73.310;2022-09-13T05:27:09;101350.09;;;13.62;55.72
61874;BME280;49692;55.052;73.310;2022-09-13T05:29:36;101347.88;;;13.48;57.01
61874;BME280;49692;55.052;73.310;2022-09-13T05:32:02;101341.09;;;13.70;55.82
61874;BME280;49692;55.052;73.310;2022-09-13T05:34:32;101349.56;;;13.79;54.53
61874;BME280;49692;55.052;73.310;2022-09-13T05:37:02;101338.50;;;13.95;55.44
61874;BME280;49692;55.052;73.310;2022-09-13T05:39:38;101335.56;;;13.77;56.37
61874;BME280;49692;55.052;73.310;2022-09-13T05:42:05;101341.41;;;13.87;56.38
61874;BME280;49692;55.052;73.310;2022-09-13T05:44:31;101332.72;;;13.84;55.17
61874;BME280;49692;55.052;73.310;2022-09-13T05:46:58;101329.16;;;13.85;56.11
61874;BME280;49692;55.052;73.310;2022-09-13T05:49:29;101338.50;;;13.96;55.01
61874;BME280;49692;55.052;73.310;2022-09-13T05:52:00;101336.34;;;14.08;55.30
61874;BME280;49692;55.052;73.310;2022-09-13T05:54:36;101336.03;;;14.17;54.93
61874;BME280;49692;55.052;73.310;2022-09-13T05:57:03;101335.66;;;14.30;54.63
61874;BME280;49692;55.052;73.310;2022-09-13T05:59:30;101340.41;;;14.18;53.23
61874;BME280;49692;55.052;73.310;2022-09-13T06:02:21;101334.28;;;14.18;51.84
61874;BME280;49692;55.052;73.310;2022-09-13T06:04:48;101324.03;;;14.34;50.58
61874;BME280;49692;55.052;73.310;2022-09-13T06:07:17;101334.41;;;14.41;50.35
61874;BME280;49692;55.052;73.310;2022-09-13T06:13:01;101329.50;;;14.81;50.17
61874;BME280;49692;55.052;73.310;2022-09-13T06:15:27;101332.78;;;14.88;49.41
61874;BME280;49692;55.052;73.310;2022-09-13T06:18:06;101331.00;;;15.14;49.56
61874;BME280;49692;55.052;73.310;2022-09-13T06:20:33;101326.25;;;15.22;49.21
61874;BME280;49692;55.052;73.310;2022-09-13T06:23:08;101333.22;;;15.01;46.65
61874;BME280;49692;55.052;73.310;2022-09-13T06:25:40;101323.06;;;15.14;47.58
61874;BME280;49692;55.052;73.310;2022-09-13T06:28:09;101328.22;;;15.17;48.71
61874;BME280;49692;55.052;73.310;2022-09-13T06:30:42;101335.13;;;15.21;47.90
61874;BME280;49692;55.052;73.310;2022-09-13T06:33:09;101331.97;;;15.35;48.19
61874;BME280;49692;55.052;73.310;2022-09-13T06:35:42;101326.19;;;15.47;48.17
61874;BME280;49692;55.052;73.310;2022-09-13T06:38:08;101327.94;;;15.48;48.41
61874;BME280;49692;55.052;73.310;2022-09-13T06:41:12;101327.13;;;15.46;48.25
61874;BME280;49692;55.052;73.310;2022-09-13T06:43:41;101326.41;;;15.41;47.61
61874;BME280;49692;55.052;73.310;2022-09-13T06:46:13;101328.66;;;15.52;47.90
61874;BME280;49692;55.052;73.310;2022-09-13T06:48:44;101325.56;;;15.41;48.03
61874;BME280;49692;55.052;73.310;2022-09-13T06:51:17;101329.31;;;15.35;50.16
61874;BME280;49692;55.052;73.310;2022-09-13T06:53:47;101331.63;;;15.21;49.63
61874;BME280;49692;55.052;73.310;2022-09-13T06:56:20;101327.47;;;15.13;50.14
61874;BME280;49692;55.052;73.310;2022-09-13T06:58:51;101326.47;;;15.16;50.04
61874;BME280;49692;55.052;73.310;2022-09-13T07:01:24;101329.38;;;15.10;51.48
61874;BME280;49692;55.052;73.310;2022-09-13T07:04:02;101320.84;;;15.01;52.51
61874;BME280;49692;55.052;73.310;2022-09-13T07:06:31;101314.84;;;14.96;52.17
61874;BME280;49692;55.052;73.310;2022-09-13T07:08:59;101334.06;;;15.01;53.06
61874;BME280;49692;55.052;73.310;2022-09-13T07:11:30;101323.72;;;14.95;53.71
61874;BME280;49692;55.052;73.310;2022-09-13T07:14:07;101323.94;;;14.89;54.23
61874;BME280;49692;55.052;73.310;2022-09-13T07:19:27;101317.50;;;14.96;54.17
61874;BME280;49692;55.052;73.310;2022-09-13T07:22:06;101324.13;;;15.08;54.36
61874;BME280;49692;55.052;73.310;2022-09-13T07:24:40;101311.78;;;15.07;55.50
61874;BME280;49692;55.052;73.310;2022-09-13T07:27:20;101321.94;;;15.20;55.88
61874;BME280;49692;55.052;73.310;2022-09-13T07:29:52;101317.97;;;15.31;55.72
61874;BME280;49692;55.052;73.310;2022-09-13T07:32:25;101319.72;;;15.55;54.38
61874;BME280;49692;55.052;73.310;2022-09-13T07:35:04;101324.38;;;15.50;54.65
61874;BME280;49692;55.052;73.310;2022-09-13T07:37:34;101319.00;;;15.51;53.48
61874;BME280;49692;55.052;73.310;2022-09-13T07:40:02;101317.75;;;15.60;53.34
61874;BME280;49692;55.052;73.310;2022-09-13T07:42:36;101316.59;;;15.67;52.03
61874;BME280;49692;55.052;73.310;2022-09-13T07:45:03;101316.66;;;15.66;51.92
61874;BME280;49692;55.052;73.310;2022-09-13T07:47:32;101320.16;;;15.68;51.97
61874;BME280;49692;55.052;73.310;2022-09-13T07:50:09;101318.47;;;15.65;52.87
61874;BME280;49692;55.052;73.310;2022-09-13T07:52:41;101319.97;;;15.48;55.34
61874;BME280;49692;55.052;73.310;2022-09-13T07:55:11;101323.59;;;15.46;48.27
61874;BME280;49692;55.052;73.310;2022-09-13T07:57:43;101320.50;;;15.35;49.20
61874;BME280;49692;55.052;73.310;2022-09-13T08:00:11;101328.25;;;15.39;51.34
61874;BME280;49692;55.052;73.310;2022-09-13T08:02:42;101317.69;;;15.15;53.23
61874;BME280;49692;55.052;73.310;2022-09-13T08:05:15;101322.28;;;15.10;53.98
61874;BME280;49692;55.052;73.310;2022-09-13T08:07:42;101313.97;;;14.96;54.24
61874;BME280;49692;55.052;73.310;2022-09-13T08:10:17;101312.06;;;14.99;52.37
61874;BME280;49692;55.052;73.310;2022-09-13T08:12:56;101304.31;;;14.95;53.01
61874;BME280;49692;55.052;73.310;2022-09-13T08:15:33;101301.66;;;14.95;53.24
61874;BME280;49692;55.052;73.310;2022-09-13T08:18:05;101297.56;;;14.86;54.07
61874;BME280;49692;55.052;73.310;2022-09-13T08:20:44;101303.19;;;14.77;53.81
61874;BME280;49692;55.052;73.310;2022-09-13T08:23:24;101317.25;;;14.79;54.10
61874;BME280;49692;55.052;73.310;2022-09-13T08:25:52;101310.41;;;14.73;54.82
61874;BME280;49692;55.052;73.310;2022-09-13T08:28:41;101297.38;;;14.67;55.40
61874;BME280;49692;55.052;73.310;2022-09-13T08:31:36;101306.22;;;14.66;56.16
61874;BME280;49692;55.052;73.310;2022-09-13T08:34:13;101307.47;;;14.55;56.27
61874;BME280;49692;55.052;73.310;2022-09-13T08:36:46;101304.44;;;14.39;56.45
61874;BME280;49692;55.052;73.310;2022-09-13T08:39:15;101300.06;;;14.40;57.02
61874;BME280;49692;55.052;73.310;2022-09-13T08:56:10;101300.72;;;14.20;58.19
61874;BME280;49692;55.052;73.310;2022-09-13T09:05:22;101288.16;;;14.26;59.72
61874;BME280;49692;55.052;73.310;2022-09-13T09:10:45;101296.75;;;14.33;59.16
61874;BME280;49692;55.052;73.310;2022-09-13T09:13:47;101293.34;;;14.30;60.11
61874;BME280;49692;55.052;73.310;2022-09-13T09:19:32;101283.72;;;14.27;59.98
61874;BME280;49692;55.052;73.310;2022-09-13T09:22:17;101300.56;;;14.24;59.75
61874;BME280;49692;55.052;73.310;2022-09-13T09:25:01;101287.78;;;14.10;59.61
61874;BME280;49692;55.052;73.310;2022-09-13T09:27:33;101293.56;;;13.95;59.30
61874;BME280;49692;55.052;73.310;2022-09-13T09:30:11;101283.97;;;13.92;59.67
61874;BME280;49692;55.052;73.310;2022-09-13T09:33:14;101290.81;;;14.00;59.54
61874;BME280;49692;55.052;73.310;2022-09-13T09:38:38;101279.50;;;13.94;59.51
61874;BME280;49692;55.052;73.310;2022-09-13T09:44:13;101288.75;;;14.08;57.86
61874;BME280;49692;55.052;73.310;2022-09-13T09:47:17;101288.84;;;14.05;58.33
61874;BME280;49692;55.052;73.310;2022-09-13T09:50:20;101297.44;;;14.11;57.25
61874;BME280;49692;55.052;73.310;2022-09-13T09:53:13;101290.41;;;14.12;57.88
61874;BME280;49692;55.052;73.310;2022-09-13T09:56:08;101296.34;;;14.19;57.93
61874;BME280;49692;55.052;73.310;2022-09-13T09:58:45;101289.47;;;14.13;57.44
61874;BME280;49692;55.052;73.310;2022-09-13T10:04:34;101290.34;;;14.40;56.97
61874;BME280;49692;55.052;73.310;2022-09-13T10:10:50;101290.97;;;14.47;56.25
61874;BME280;49692;55.052;73.310;2022-09-13T10:13:20;101295.09;;;14.56;55.37
61874;BME280;49692;55.052;73.310;2022-09-13T10:15:59;101298.44;;;14.61;54.42
61874;BME280;49692;55.052;73.310;2022-09-13T10:18:31;101291.16;;;14.68;53.97
61874;BME280;49692;55.052;73.310;2022-09-13T10:21:05;101299.00;;;14.71;53.86
61874;BME280;49692;55.052;73.310;2022-09-13T10:23:44;101292.41;;;14.57;54.10
61874;BME280;49692;55.052;73.310;2022-09-13T10:26:24;101298.88;;;14.74;54.00
61874;BME280;49692;55.052;73.310;2022-09-13T10:29:12;101288.78;;;14.60;55.36
61874;BME280;49692;55.052;73.310;2022-09-13T10:31:52;101289.31;;;14.70;55.13
61874;BME280;49692;55.052;73.310;2022-09-13T10:34:35;101295.75;;;14.63;55.40
61874;BME280;49692;55.052;73.310;2022-09-13T10:37:25;101294.81;;;14.64;55.93
61874;BME280;49692;55.052;73.310;2022-09-13T10:40:39;101298.38;;;14.63;55.97
61874;BME280;49692;55.052;73.310;2022-09-13T10:43:14;101300.00;;;14.67;56.13
61874;BME280;49692;55.052;73.310;2022-09-13T10:45:53;101281.13;;;14.52;57.10
61874;BME280;49692;55.052;73.310;2022-09-13T10:48:45;101287.81;;;14.63;56.37
61874;BME280;49692;55.052;73.310;2022-09-13T10:54:23;101287.13;;;14.57;56.16
61874;BME280;49692;55.052;73.310;2022-09-13T10:56:53;101288.56;;;14.39;56.12
61874;BME280;49692;55.052;73.310;2022-09-13T10:59:29;101289.38;;;14.43;56.44
61874;BME280;49692;55.052;73.310;2022-09-13T11:12:54;101295.06;;;14.57;57.88
61874;BME280;49692;55.052;73.310;2022-09-13T11:15:37;101290.78;;;14.53;58.28
61874;BME280;49692;55.052;73.310;2022-09-13T11:18:47;101284.41;;;14.59;59.20
61874;BME280;49692;55.052;73.310;2022-09-13T11:24:12;101278.56;;;14.49;58.70
61874;BME280;49692;55.052;73.310;2022-09-13T11:27:49;101286.13;;;14.60;58.49
61874;BME280;49692;55.052;73.310;2022-09-13T11:44:17;101280.88;;;14.33;56.98
61874;BME280;49692;55.052;73.310;2022-09-13T11:49:36;101282.59;;;14.34;58.18
61874;BME280;49692;55.052;73.310;2022-09-13T11:57:41;101279.81;;;14.12;58.31
61874;BME280;49692;55.052;73.310;2022-09-13T12:00:19;101277.16;;;14.12;57.80
61874;BME280;49692;55.052;73.310;2022-09-13T12:03:05;101275.63;;;14.05;58.59
61874;BME280;49692;55.052;73.310;2022-09-13T12:05:50;101274.06;;;13.99;58.38
61874;BME280;49692;55.052;73.310;2022-09-13T12:08:31;101276.81;;;13.96;58.31
61874;BME280;49692;55.052;73.310;2022-09-13T12:13:43;101277.47;;;13.76;59.24
61874;BME280;49692;55.052;73.310;2022-09-13T12:16:25;101278.19;;;13.81;59.10
61874;BME280;49692;55.052;73.310;2022-09-13T12:19:17;101274.97;;;13.71;60.27
61874;BME280;49692;55.052;73.310;2022-09-13T12:21:50;101283.19;;;13.62;60.02
61874;BME280;49692;55.052;73.310;2022-09-13T12:24:58;101282.06;;;13.69;59.31
61874;BME280;49692;55.052;73.310;2022-09-13T12:30:19;101277.34;;;13.50;60.92
61874;BME280;49692;55.052;73.310;2022-09-13T12:32:48;101280.97;;;13.48;60.70
61874;BME280;49692;55.052;73.310;2022-09-13T12:41:01;101278.16;;;13.54;60.94
61874;BME280;49692;55.052;73.310;2022-09-13T12:44:02;101280.13;;;13.47;61.24
61874;BME280;49692;55.052;73.310;2022-09-13T12:49:47;101287.56;;;13.33;61.77
61874;BME280;49692;55.052;73.310;2022-09-13T12:52:29;101288.75;;;13.23;62.21
61874;BME280;49692;55.052;73.310;2022-09-13T13:01:08;101290.50;;;13.24;62.33
61874;BME280;49692;55.052;73.310;2022-09-13T13:03:52;101295.91;;;13.19;62.60
61874;BME280;49692;55.052;73.310;2022-09-13T13:12:31;101291.84;;;13.07;63.64
61874;BME280;49692;55.052;73.310;2022-09-13T13:15:03;101294.75;;;12.96;63.57
61874;BME280;49692;55.052;73.310;2022-09-13T13:17:44;101296.50;;;12.99;64.33
61874;BME280;49692;55.052;73.310;2022-09-13T13:23:36;101297.59;;;12.90;63.80
61874;BME280;49692;55.052;73.310;2022-09-13T13:29:03;101305.53;;;12.88;64.96
61874;BME280;49692;55.052;73.310;2022-09-13T13:34:25;101305.06;;;12.74;65.49
61874;BME280;49692;55.052;73.310;2022-09-13T13:37:04;101313.56;;;12.85;65.48
61874;BME280;49692;55.052;73.310;2022-09-13T13:42:43;101315.94;;;12.62;66.48
61874;BME280;49692;55.052;73.310;2022-09-13T13:45:23;101314.63;;;12.78;66.55
61874;BME280;49692;55.052;73.310;2022-09-13T13:47:55;101317.38;;;12.73;66.41
61874;BME280;49692;55.052;73.310;2022-09-13T13:56:29;101323.44;;;12.77;66.54
61874;BME280;49692;55.052;73.310;2022-09-13T13:59:08;101318.44;;;12.68;66.51
61874;BME280;49692;55.052;73.310;2022-09-13T14:01:44;101329.88;;;12.67;67.58
61874;BME280;49692;55.052;73.310;2022-09-13T14:07:28;101337.72;;;12.70;66.80
61874;BME280;49692;55.052;73.310;2022-09-13T14:16:07;101339.88;;;12.55;67.50
61874;BME280;49692;55.052;73.310;2022-09-13T14:21:30;101336.53;;;12.47;67.80
61874;BME280;49692;55.052;73.310;2022-09-13T14:26:51;101344.31;;;12.52;67.97
61874;BME280;49692;55.052;73.310;2022-09-13T14:29:28;101339.97;;;12.51;67.20
61874;BME280;49692;55.052;73.310;2022-09-13T14:32:06;101342.38;;;12.60;66.83
61874;BME280;49692;55.052;73.310;2022-09-13T14:34:37;101340.78;;;12.53;67.18
61874;BME280;49692;55.052;73.310;2022-09-13T14:37:17;101342.53;;;12.54;67.07
61874;BME280;49692;55.052;73.310;2022-09-13T14:42:45;101344.44;;;12.49;67.41
61874;BME280;49692;55.052;73.310;2022-09-13T14:45:19;101352.28;;;12.50;66.72
61874;BME280;49692;55.052;73.310;2022-09-13T14:51:06;101357.50;;;12.52;67.08
61874;BME280;49692;55.052;73.310;2022-09-13T14:53:39;101355.91;;;12.46;67.38
61874;BME280;49692;55.052;73.310;2022-09-13T14:56:28;101347.13;;;12.46;67.74
61874;BME280;49692;55.052;73.310;2022-09-13T14:59:02;101363.78;;;12.48;67.42
61874;BME280;49692;55.052;73.310;2022-09-13T15:01:34;101359.50;;;12.42;68.09
61874;BME280;49692;55.052;73.310;2022-09-13T15:04:03;101349.28;;;12.29;68.32
61874;BME280;49692;55.052;73.310;2022-09-13T15:06:35;101352.69;;;12.35;67.99
61874;BME280;49692;55.052;73.310;2022-09-13T15:14:48;101352.09;;;12.22;68.75
61874;BME280;49692;55.052;73.310;2022-09-13T15:17:14;101355.88;;;12.11;68.66
61874;BME280;49692;55.052;73.310;2022-09-13T15:19:47;101356.63;;;12.17;68.58
61874;BME280;49692;55.052;73.310;2022-09-13T15:22:24;101352.28;;;12.16;68.39
61874;BME280;49692;55.052;73.310;2022-09-13T15:24:58;101362.81;;;12.16;68.51
61874;BME280;49692;55.052;73.310;2022-09-13T15:27:44;101356.63;;;12.17;68.33
61874;BME280;49692;55.052;73.310;2022-09-13T15:33:02;101349.94;;;12.02;68.18
61874;BME280;49692;55.052;73.310;2022-09-13T15:35:35;101356.81;;;12.09;67.96
61874;BME280;49692;55.052;73.310;2022-09-13T15:38:30;101361.22;;;12.08;67.81
61874;BME280;49692;55.052;73.310;2022-09-13T15:41:15;101356.97;;;12.03;69.11
61874;BME280;49692;55.052;73.310;2022-09-13T15:43:47;101359.66;;;12.00;68.94
61874;BME280;49692;55.052;73.310;2022-09-13T15:46:15;101361.56;;;11.93;69.20
61874;BME280;49692;55.052;73.310;2022-09-13T15:48:58;101356.28;;;11.94;69.17
61874;BME280;49692;55.052;73.310;2022-09-13T15:51:27;101358.19;;;11.88;69.69
61874;BME280;49692;55.052;73.310;2022-09-13T15:53:55;101357.25;;;11.90;68.55
61874;BME280;49692;55.052;73.310;2022-09-13T15:56:30;101356.41;;;11.88;68.72
61874;BME280;49692;55.052;73.310;2022-09-13T15:59:13;101357.38;;;11.84;68.97
61874;BME280;49692;55.052;73.310;2022-09-13T16:01:51;101356.53;;;11.82;69.27
61874;BME280;49692;55.052;73.310;2022-09-13T16:04:18;101358.31;;;11.81;68.76
61874;BME280;49692;55.052;73.310;2022-09-13T16:06:47;101365.38;;;11.79;68.87
61874;BME280;49692;55.052;73.310;2022-09-13T16:09:24;101352.09;;;11.86;68.69
61874;BME280;49692;55.052;73.310;2022-09-13T16:12:01;101348.97;;;11.68;69.11
61874;BME280;49692;55.052;73.310;2022-09-13T16:14:34;101364.66;;;11.73;68.95
61874;BME280;49692;55.052;73.310;2022-09-13T16:17:20;101354.84;;;11.81;69.21
61874;BME280;49692;55.052;73.310;2022-09-13T16:20:01;101356.69;;;11.76;69.67
61874;BME280;49692;55.052;73.310;2022-09-13T16:22:32;101359.56;;;11.65;69.51
61874;BME280;49692;55.052;73.310;2022-09-13T16:25:12;101350.53;;;11.75;69.36
61874;BME280;49692;55.052;73.310;2022-09-13T16:27:43;101359.38;;;11.73;69.80
61874;BME280;49692;55.052;73.310;2022-09-13T16:30:26;101361.09;;;11.75;69.81
61874;BME280;49692;55.052;73.310;2022-09-13T16:33:17;101358.66;;;11.66;70.06
61874;BME280;49692;55.052;73.310;2022-09-13T16:35:46;101354.44;;;11.59;70.23
61874;BME280;49692;55.052;73.310;2022-09-13T16:38:13;101357.75;;;11.67;69.33
61874;BME280;49692;55.052;73.310;2022-09-13T16:40:54;101343.75;;;11.65;69.01
61874;BME280;49692;55.052;73.310;2022-09-13T16:43:21;101346.38;;;11.65;68.87
61874;BME280;49692;55.052;73.310;2022-09-13T16:45:47;101355.13;;;11.67;69.09
61874;BME280;49692;55.052;73.310;2022-09-13T16:48:43;101357.09;;;11.57;69.23
61874;BME280;49692;55.052;73.310;2022-09-13T16:51:16;101360.56;;;11.59;69.59
61874;BME280;49692;55.052;73.310;2022-09-13T16:53:44;101355.47;;;11.51;69.48
61874;BME280;49692;55.052;73.310;2022-09-13T16:56:16;101347.50;;;11.53;69.28
61874;BME280;49692;55.052;73.310;2022-09-13T16:58:59;101352.94;;;11.47;68.72